Sarajevo, Bosnia and Herzegovina
Current Conditions -  °F | °C
As of 11:00 PM on Monday 22 Dec 2014 (Local Time) from LQSA Reporting Station
Haze Haze  
Wind Chill: 28°   Ceiling: Unl
Heat Index: 28°   Visibility: 2.1mi
Dew Point: 28°   Wind: 1mph
Humidity: 100%   Direction: NA
Pressure: 30.36"   Gusts: NA
Location:  43.85°N, 18.38°E
Report Text: LQSA 222100Z VRB01KT 3500 BR NSC M02/M02 Q1028 NOSIG
Loading
Personal Weather Stations






























Interactive Weather Map New forecast layout! Learn more

10-Day Weather Forecast

Advertisements
Track Severe Weather on mobile